createdAt,value
2018-04-29T00:02:17.508Z,3.90
2018-04-29T00:04:45.722Z,4.03
2018-04-29T00:07:18.539Z,4.33
2018-04-29T00:09:46.749Z,3.47
2018-04-29T00:12:14.997Z,3.70
2018-04-29T00:14:43.203Z,3.87
2018-04-29T00:17:28.897Z,4.60
2018-04-29T00:19:57.183Z,4.20
2018-04-29T00:22:25.402Z,3.83
2018-04-29T00:24:53.613Z,4.00
2018-04-29T00:27:29.954Z,4.10
2018-04-29T00:29:58.163Z,4.33
2018-04-29T00:32:26.393Z,3.57
2018-04-29T00:34:54.675Z,3.43
2018-04-29T00:37:30.166Z,3.03
2018-04-29T00:39:58.408Z,3.57
2018-04-29T00:42:26.623Z,3.20
2018-04-29T00:44:54.911Z,3.63
2018-04-29T00:47:47.950Z,3.47
2018-04-29T00:50:16.167Z,3.30
2018-04-29T00:52:44.433Z,3.53
2018-04-29T00:55:12.671Z,3.83
2018-04-29T00:57:41.802Z,3.83
2018-04-29T01:00:10.851Z,4.57
2018-04-29T01:02:39.099Z,4.43
2018-04-29T01:05:07.408Z,4.10
2018-04-29T01:07:43.027Z,3.60
2018-04-29T01:10:11.275Z,3.17
2018-04-29T01:12:40.225Z,3.80
2018-04-29T01:15:08.476Z,3.40
2018-04-29T01:17:53.665Z,4.03
2018-04-29T01:20:21.884Z,3.80
2018-04-29T01:22:50.825Z,3.60
2018-04-29T01:25:19.056Z,3.80
2018-04-29T01:27:48.225Z,3.50
2018-04-29T01:30:16.441Z,3.43
2018-04-29T01:32:44.638Z,4.07
2018-04-29T01:35:12.929Z,3.63
2018-04-29T01:37:41.117Z,3.90
2018-04-29T01:40:09.359Z,3.93
2018-04-29T01:42:37.632Z,4.30
2018-04-29T01:45:05.810Z,3.80
2018-04-29T01:47:38.501Z,3.90
2018-04-29T01:50:06.749Z,4.30
2018-04-29T01:52:35.017Z,4.30
2018-04-29T01:55:03.245Z,4.17
2018-04-29T01:57:31.519Z,3.83
2018-04-29T01:59:59.755Z,3.40
2018-04-29T02:02:28.046Z,3.47
2018-04-29T02:04:56.265Z,4.47
2018-04-29T02:07:27.277Z,4.33
2018-04-29T02:09:55.521Z,4.23
2018-04-29T02:12:23.725Z,4.27
2018-04-29T02:14:51.871Z,4.57
2018-04-29T02:17:21.020Z,4.53
2018-04-29T02:19:49.174Z,4.13
2018-04-29T02:22:17.318Z,4.10
2018-04-29T02:24:45.491Z,4.87
2018-04-29T02:27:17.693Z,4.37
2018-04-29T02:29:45.859Z,4.20
2018-04-29T02:32:14.000Z,4.83
2018-04-29T02:34:42.169Z,4.80
2018-04-29T02:37:19.585Z,4.90
2018-04-29T02:39:47.757Z,4.60
2018-04-29T02:42:15.967Z,4.90
2018-04-29T02:44:44.937Z,4.33
2018-04-29T02:47:13.127Z,4.87
2018-04-29T02:49:41.383Z,4.93
2018-04-29T02:52:09.551Z,5.43
2018-04-29T02:54:37.721Z,4.33
2018-04-29T02:57:13.249Z,4.87
2018-04-29T02:59:41.489Z,4.57
2018-04-29T03:02:10.464Z,4.57
2018-04-29T03:04:38.657Z,4.80
2018-04-29T03:07:07.625Z,4.87
2018-04-29T03:09:35.789Z,5.53
2018-04-29T03:12:03.936Z,4.33
2018-04-29T03:14:32.099Z,5.20
2018-04-29T03:17:01.225Z,5.60
2018-04-29T03:19:29.367Z,5.00
2018-04-29T03:21:57.528Z,5.13
2018-04-29T03:24:25.685Z,5.90
2018-04-29T03:26:54.673Z,5.40
2018-04-29T03:29:23.674Z,5.77
2018-04-29T03:31:52.705Z,5.20
2018-04-29T03:34:20.929Z,4.93
2018-04-29T03:36:53.272Z,5.87
2018-04-29T03:39:21.436Z,5.97
2018-04-29T03:41:49.693Z,5.43
2018-04-29T03:44:17.904Z,6.00
2018-04-29T03:46:55.614Z,5.47
2018-04-29T03:49:23.865Z,5.93
2018-04-29T03:51:52.120Z,5.67
2018-04-29T03:54:20.373Z,6.27
2018-04-29T03:56:50.592Z,6.03
2018-04-29T03:59:36.580Z,6.73
2018-04-29T04:05:14.733Z,5.87
2018-04-29T04:07:43.946Z,6.57
2018-04-29T04:10:12.101Z,6.53
2018-04-29T04:12:40.340Z,5.97
2018-04-29T04:15:09.297Z,6.60
2018-04-29T04:17:38.476Z,6.20
2018-04-29T04:20:06.647Z,7.03
2018-04-29T04:22:34.862Z,6.07
2018-04-29T04:25:03.809Z,6.37
2018-04-29T04:27:32.930Z,6.03
2018-04-29T04:30:01.155Z,6.07
2018-04-29T04:32:29.369Z,7.10
2018-04-29T04:34:57.593Z,6.43
2018-04-29T04:37:28.536Z,6.00
2018-04-29T04:39:56.798Z,5.63
2018-04-29T04:42:25.769Z,6.20
2018-04-29T04:44:54.002Z,6.37
2018-04-29T04:47:22.234Z,6.20
2018-04-29T04:49:51.238Z,6.10
2018-04-29T04:52:20.221Z,5.90
2018-04-29T04:54:49.235Z,5.53
2018-04-29T04:57:18.388Z,6.17
2018-04-29T04:59:46.652Z,6.17
2018-04-29T05:02:14.832Z,5.60
2018-04-29T05:04:43.054Z,5.83
2018-04-29T05:07:13.314Z,5.57
2018-04-29T05:09:41.562Z,5.70
2018-04-29T05:12:09.841Z,4.93
2018-04-29T05:14:38.042Z,5.20
2018-04-29T05:17:16.689Z,5.00
2018-04-29T05:19:44.897Z,5.40
2018-04-29T05:22:13.098Z,5.13
2018-04-29T05:24:41.296Z,4.93
2018-04-29T05:27:17.001Z,4.63
2018-04-29T05:29:45.249Z,5.10
2018-04-29T05:32:14.274Z,4.47
2018-04-29T05:34:42.473Z,4.80
2018-04-29T05:37:22.521Z,5.50
2018-04-29T05:39:50.789Z,5.93
2018-04-29T05:42:19.011Z,6.10
2018-04-29T05:44:47.972Z,6.10
2018-04-29T05:47:20.537Z,6.27
2018-04-29T05:49:48.769Z,6.07
2018-04-29T05:52:17.807Z,5.80
2018-04-29T05:54:45.974Z,5.83
2018-04-29T05:57:28.174Z,6.10
2018-04-29T05:59:56.312Z,5.53
2018-04-29T06:02:25.244Z,5.17
2018-04-29T06:04:53.394Z,5.17
2018-04-29T06:07:23.558Z,4.90
2018-04-29T06:09:51.709Z,4.93
2018-04-29T06:12:19.872Z,4.70
2018-04-29T06:14:48.017Z,4.30
2018-04-29T06:17:27.408Z,5.13
2018-04-29T06:19:56.000Z,4.20
2018-04-29T06:22:24.197Z,4.70
2018-04-29T06:24:52.400Z,4.77
2018-04-29T06:27:29.494Z,4.27
2018-04-29T06:29:57.769Z,4.43
2018-04-29T06:32:25.973Z,3.93
2018-04-29T06:34:54.194Z,3.93
2018-04-29T06:37:37.668Z,4.27
2018-04-29T06:40:05.921Z,3.60
2018-04-29T06:42:34.153Z,3.60
2018-04-29T06:45:02.325Z,4.00
2018-04-29T06:47:40.167Z,4.17
2018-04-29T06:50:08.373Z,3.83
2018-04-29T06:52:36.565Z,3.87
2018-04-29T06:55:04.845Z,3.73
2018-04-29T06:57:38.978Z,3.67
2018-04-29T07:00:07.921Z,3.60
2018-04-29T07:02:36.088Z,2.97
2018-04-29T07:05:04.256Z,3.63
2018-04-29T07:07:40.064Z,3.23
2018-04-29T07:10:09.081Z,3.47
2018-04-29T07:12:37.279Z,3.60
2018-04-29T07:15:05.529Z,3.73
2018-04-29T07:17:41.262Z,3.60
2018-04-29T07:20:10.284Z,3.53
2018-04-29T07:22:38.481Z,3.93
2018-04-29T07:25:06.756Z,4.37
2018-04-29T07:27:43.041Z,4.17
2018-04-29T07:30:11.280Z,3.07
2018-04-29T07:32:39.497Z,3.40
2018-04-29T07:35:07.681Z,3.47
2018-04-29T07:37:35.854Z,3.53
2018-04-29T07:42:36.388Z,3.70
2018-04-29T07:45:04.620Z,3.60
2018-04-29T07:47:34.849Z,3.70
2018-04-29T07:50:03.065Z,3.37
2018-04-29T07:52:31.367Z,3.07
2018-04-29T07:54:59.537Z,3.40
2018-04-29T07:57:29.505Z,3.17
2018-04-29T07:59:57.694Z,3.10
2018-04-29T08:02:25.870Z,3.00
2018-04-29T08:04:54.043Z,3.40
2018-04-29T08:07:25.360Z,3.50
2018-04-29T08:09:53.534Z,2.83
2018-04-29T08:12:21.765Z,2.80
2018-04-29T08:14:50.738Z,2.53
2018-04-29T08:17:18.981Z,2.97
2018-04-29T08:19:47.161Z,2.43
2018-04-29T08:22:15.417Z,2.63
2018-04-29T08:24:43.634Z,2.40
2018-04-29T08:27:17.542Z,2.80
2018-04-29T08:29:45.769Z,2.60
2018-04-29T08:32:14.040Z,2.90
2018-04-29T08:34:42.249Z,2.70
2018-04-29T08:37:11.361Z,2.60
2018-04-29T08:39:40.260Z,2.23
2018-04-29T08:42:08.466Z,2.23
2018-04-29T08:44:36.643Z,2.50
2018-04-29T08:47:12.421Z,2.20
2018-04-29T08:49:40.621Z,2.83
2018-04-29T08:52:08.898Z,2.73
2018-04-29T08:54:37.129Z,2.30
2018-04-29T08:57:12.597Z,2.17
2018-04-29T08:59:40.860Z,2.40
2018-04-29T09:02:09.094Z,2.33
2018-04-29T09:04:38.062Z,2.27
2018-04-29T09:07:42.188Z,2.00
2018-04-29T09:10:10.428Z,2.23
2018-04-29T09:12:38.636Z,2.33
2018-04-29T09:15:06.836Z,2.77
2018-04-29T09:17:38.821Z,2.63
2018-04-29T09:20:07.006Z,2.17
2018-04-29T09:22:35.213Z,2.77
2018-04-29T09:25:03.422Z,2.60
2018-04-29T09:27:45.680Z,2.50
2018-04-29T09:30:13.892Z,2.90
2018-04-29T09:32:42.825Z,2.97
2018-04-29T09:35:11.038Z,2.97
2018-04-29T09:37:52.868Z,3.17
2018-04-29T09:40:21.209Z,2.00
2018-04-29T09:42:49.497Z,2.50
2018-04-29T09:45:17.734Z,2.20
2018-04-29T09:47:53.114Z,2.60
2018-04-29T09:50:22.161Z,2.50
2018-04-29T09:52:50.410Z,2.70
2018-04-29T09:55:18.643Z,2.37
2018-04-29T09:57:46.899Z,2.30
2018-04-29T10:00:15.182Z,2.90
2018-04-29T10:02:48.370Z,2.93
2018-04-29T10:05:16.604Z,2.53
2018-04-29T10:07:52.651Z,2.77
2018-04-29T10:10:20.909Z,2.50
2018-04-29T10:12:49.911Z,3.00
2018-04-29T10:15:20.917Z,3.47
2018-04-29T10:18:01.429Z,2.90
2018-04-29T10:20:29.661Z,3.33
2018-04-29T10:22:57.858Z,2.93
2018-04-29T10:25:26.887Z,2.78
2018-04-29T10:27:55.110Z,2.95
2018-04-29T10:30:23.325Z,2.50
2018-04-29T10:32:51.630Z,2.78
2018-04-29T10:35:19.745Z,3.10
2018-04-29T10:37:48.005Z,3.22
2018-04-29T10:40:16.209Z,2.85
2018-04-29T10:42:44.443Z,3.08
2018-04-29T10:45:12.629Z,3.30
2018-04-29T10:47:41.750Z,2.90
2018-04-29T10:50:10.725Z,2.80
2018-04-29T10:52:39.701Z,2.90
2018-04-29T10:55:07.869Z,2.90
2018-04-29T10:57:36.129Z,2.70
2018-04-29T11:00:04.325Z,2.80
2018-04-29T11:02:32.590Z,3.10
2018-04-29T11:05:01.953Z,2.90
2018-04-29T11:07:34.878Z,2.83
2018-04-29T11:10:03.034Z,3.03
2018-04-29T11:12:32.385Z,2.85
2018-04-29T11:15:01.326Z,3.35
2018-04-29T11:17:29.506Z,3.03
2018-04-29T11:19:57.650Z,2.80
2018-04-29T11:22:27.802Z,2.65
2018-04-29T11:24:57.102Z,2.80
2018-04-29T11:27:26.224Z,3.03
2018-04-29T11:29:54.388Z,2.65
2018-04-29T11:32:22.561Z,3.05
2018-04-29T11:34:50.830Z,3.00
2018-04-29T11:37:20.977Z,3.10
2018-04-29T11:39:49.184Z,2.75
2018-04-29T11:42:17.405Z,3.30
2018-04-29T11:44:45.642Z,3.42
2018-04-29T11:47:16.993Z,2.85
2018-04-29T11:49:45.220Z,3.35
2018-04-29T11:52:13.442Z,3.15
2018-04-29T11:54:41.682Z,3.25
2018-04-29T11:57:19.245Z,3.15
2018-04-29T11:59:47.423Z,3.05
2018-04-29T12:02:15.598Z,3.50
2018-04-29T12:04:43.829Z,3.40
2018-04-29T12:08:04.785Z,3.28
2018-04-29T12:10:33.014Z,3.50
2018-04-29T12:13:01.195Z,3.28
2018-04-29T12:15:29.432Z,3.35
2018-04-29T12:17:59.375Z,2.97
2018-04-29T12:20:27.631Z,2.75
2018-04-29T12:22:56.594Z,2.97
2018-04-29T12:25:24.788Z,3.40
2018-04-29T12:28:02.991Z,3.15
2018-04-29T12:30:31.996Z,2.97
2018-04-29T12:33:00.977Z,3.37
2018-04-29T12:35:29.981Z,3.03
2018-04-29T12:37:58.946Z,3.10
2018-04-29T12:40:27.146Z,3.65
2018-04-29T12:42:56.190Z,3.20
2018-04-29T12:45:24.402Z,3.40
2018-04-29T12:47:55.439Z,3.50
2018-04-29T12:50:23.701Z,3.40
2018-04-29T12:52:51.933Z,2.92
2018-04-29T12:55:20.147Z,3.30
2018-04-29T12:57:49.339Z,2.87
2018-04-29T13:00:17.637Z,2.80
2018-04-29T13:02:46.615Z,3.00
2018-04-29T13:05:14.890Z,2.42
2018-04-29T13:07:43.089Z,2.78
2018-04-29T13:10:12.087Z,3.22
2018-04-29T13:12:41.122Z,2.95
2018-04-29T13:15:09.356Z,2.78
2018-04-29T13:17:39.610Z,2.75
2018-04-29T13:20:07.861Z,2.67
2018-04-29T13:22:36.109Z,2.95
2018-04-29T13:25:04.350Z,2.83
2018-04-29T13:27:35.833Z,2.92
2018-04-29T13:30:04.076Z,3.33
2018-04-29T13:32:32.278Z,2.50
2018-04-29T13:35:00.461Z,1.95
2018-04-29T13:37:29.632Z,3.10
2018-04-29T13:39:57.826Z,3.00
2018-04-29T13:42:26.172Z,2.83
2018-04-29T13:44:55.170Z,2.75
2018-04-29T13:47:31.295Z,2.67
2018-04-29T13:49:59.557Z,2.78
2018-04-29T13:52:28.597Z,3.20
2018-04-29T13:54:56.863Z,2.95
2018-04-29T13:57:25.093Z,3.00
2018-04-29T13:59:54.142Z,3.60
2018-04-29T14:02:22.405Z,3.22
2018-04-29T14:04:50.638Z,3.03
2018-04-29T14:07:30.050Z,2.58
2018-04-29T14:09:58.318Z,2.83
2018-04-29T14:12:26.550Z,3.12
2018-04-29T14:14:54.846Z,2.80
2018-04-29T14:17:30.549Z,2.80
2018-04-29T14:19:59.594Z,2.40
2018-04-29T14:22:27.799Z,3.10
2018-04-29T14:24:56.021Z,2.67
2018-04-29T14:27:24.258Z,3.03
2018-04-29T14:29:52.506Z,2.90
2018-04-29T14:32:20.691Z,2.60
2018-04-29T14:34:48.958Z,2.92
2018-04-29T14:37:19.072Z,3.08
2018-04-29T14:39:47.256Z,3.20
2018-04-29T14:42:15.433Z,2.90
2018-04-29T14:44:43.662Z,2.85
2018-04-29T14:47:11.817Z,2.60
2018-04-29T14:49:40.847Z,3.15
2018-04-29T14:52:09.018Z,3.10
2018-04-29T14:54:37.186Z,2.72
2018-04-29T14:57:07.387Z,2.50
2018-04-29T14:59:35.641Z,2.78
2018-04-29T15:02:04.667Z,3.10
2018-04-29T15:04:32.878Z,2.65
2018-04-29T15:07:01.173Z,3.22
2018-04-29T15:09:29.389Z,2.75
2018-04-29T15:11:57.638Z,3.20
2018-04-29T15:14:28.589Z,3.08
2018-04-29T15:17:04.758Z,2.97
2018-04-29T15:19:53.792Z,2.85
2018-04-29T15:22:22.086Z,3.10
2018-04-29T15:24:50.349Z,2.50
2018-04-29T15:27:26.674Z,3.08
2018-04-29T15:29:54.878Z,3.12
2018-04-29T15:32:23.157Z,2.50
2018-04-29T15:34:51.378Z,2.60
2018-04-29T15:37:20.615Z,2.65
2018-04-29T15:39:48.873Z,2.90
2018-04-29T15:42:17.130Z,2.90
2018-04-29T15:44:45.382Z,3.47
2018-04-29T15:47:13.596Z,2.92
2018-04-29T15:49:41.781Z,3.05
2018-04-29T15:52:10.069Z,2.83
2018-04-29T15:54:38.307Z,2.78
2018-04-29T15:57:13.654Z,3.00
2018-04-29T15:59:41.951Z,3.10
2018-04-29T16:02:10.174Z,2.85
2018-04-29T16:04:38.460Z,2.62
2018-04-29T16:07:14.035Z,3.15
2018-04-29T16:09:42.317Z,2.78
2018-04-29T16:12:10.581Z,2.97
2018-04-29T16:14:38.839Z,2.72
2018-04-29T16:17:07.077Z,2.50
2018-04-29T16:19:35.334Z,2.45
2018-04-29T16:22:03.555Z,2.50
2018-04-29T16:24:31.778Z,2.78
2018-04-29T16:27:00.035Z,2.50
2018-04-29T16:29:28.350Z,2.72
2018-04-29T16:31:56.583Z,2.45
2018-04-29T16:34:24.789Z,2.72
2018-04-29T16:36:58.170Z,3.00
2018-04-29T16:39:26.417Z,3.08
2018-04-29T16:41:55.766Z,2.70
2018-04-29T16:44:24.017Z,2.75
2018-04-29T16:47:06.140Z,3.17
2018-04-29T16:49:34.388Z,2.67
2018-04-29T16:52:02.612Z,3.20
2018-04-29T16:54:31.982Z,2.60
2018-04-29T16:57:01.113Z,4.50
2018-04-29T16:59:30.058Z,3.40
2018-04-29T17:01:58.315Z,2.90
2018-04-29T17:04:26.516Z,2.60
2018-04-29T17:07:04.449Z,2.47
2018-04-29T17:09:33.520Z,2.90
2018-04-29T17:12:01.769Z,2.30
2018-04-29T17:14:29.981Z,2.60
2018-04-29T17:17:07.866Z,2.92
2018-04-29T17:19:36.101Z,2.92
2018-04-29T17:22:05.453Z,2.95
2018-04-29T17:24:33.700Z,2.70
2018-04-29T17:27:06.051Z,2.53
2018-04-29T17:29:34.280Z,2.57
2018-04-29T17:32:02.564Z,3.20
2018-04-29T17:34:31.549Z,2.90
2018-04-29T17:37:03.985Z,3.30
2018-04-29T17:39:32.245Z,3.10
2018-04-29T17:42:00.453Z,2.70
2018-04-29T17:44:28.626Z,3.50
2018-04-29T17:47:04.568Z,2.63
2018-04-29T17:49:32.774Z,3.00
2018-04-29T17:52:01.063Z,2.87
2018-04-29T17:54:30.038Z,3.47
2018-04-29T17:56:58.311Z,2.83
2018-04-29T17:59:26.515Z,2.83
2018-04-29T18:01:55.530Z,2.90
2018-04-29T18:04:23.816Z,2.83
2018-04-29T18:07:07.253Z,2.90
2018-04-29T18:09:35.547Z,3.07
2018-04-29T18:12:03.789Z,3.43
2018-04-29T18:14:32.019Z,2.43
2018-04-29T18:17:26.742Z,2.80
2018-04-29T18:19:55.757Z,2.90
2018-04-29T18:22:24.053Z,3.33
2018-04-29T18:24:53.157Z,3.53
2018-04-29T18:27:21.367Z,3.17
2018-04-29T18:29:50.383Z,3.27
2018-04-29T18:32:18.574Z,3.03
2018-04-29T18:34:46.885Z,2.57
2018-04-29T18:37:26.152Z,3.10
2018-04-29T18:39:55.152Z,3.70
2018-04-29T18:42:23.367Z,2.90
2018-04-29T18:44:51.626Z,2.80
2018-04-29T18:47:47.774Z,3.27
2018-04-29T18:50:16.049Z,3.23
2018-04-29T18:52:44.267Z,3.30
2018-04-29T18:55:13.319Z,3.30
2018-04-29T18:57:42.459Z,3.53
2018-04-29T19:00:11.535Z,3.20
2018-04-29T19:02:39.855Z,3.53
2018-04-29T19:05:08.109Z,3.17
2018-04-29T19:07:48.391Z,3.43
2018-04-29T19:10:16.640Z,4.33
2018-04-29T19:12:45.682Z,6.27
2018-04-29T19:15:13.960Z,7.57
2018-04-29T19:17:42.174Z,7.50
2018-04-29T19:20:10.447Z,5.57
2018-04-29T19:22:38.683Z,5.07
2018-04-29T19:25:06.865Z,4.20
2018-04-29T19:27:44.664Z,4.77
2018-04-29T19:30:12.901Z,4.83
2018-04-29T19:32:41.158Z,4.73
2018-04-29T19:35:10.123Z,4.33
2018-04-29T19:37:38.334Z,4.87
2018-04-29T19:40:06.522Z,4.43
2018-04-29T19:42:34.781Z,4.30
2018-04-29T19:45:03.804Z,4.83
2018-04-29T19:47:32.124Z,4.50
2018-04-29T19:50:00.388Z,4.40
2018-04-29T19:52:28.622Z,3.97
2018-04-29T19:55:07.277Z,3.93
2018-04-29T19:57:36.497Z,4.23
2018-04-29T20:00:05.519Z,4.37
2018-04-29T20:02:34.582Z,3.87
2018-04-29T20:05:02.837Z,6.00
2018-04-29T20:07:53.483Z,4.03
2018-04-29T20:10:21.709Z,5.63
2018-04-29T20:12:49.952Z,6.53
2018-04-29T20:15:18.260Z,6.40
2018-04-29T20:17:48.511Z,6.17
2018-04-29T20:20:17.506Z,6.83
2018-04-29T20:22:45.771Z,5.77
2018-04-29T20:25:14.089Z,5.60
2018-04-29T20:27:43.348Z,3.97
2018-04-29T20:30:11.626Z,4.00
2018-04-29T20:32:48.628Z,4.40
2018-04-29T20:35:17.675Z,4.00
2018-04-29T20:37:50.347Z,4.00
2018-04-29T20:40:18.623Z,4.23
2018-04-29T20:42:46.942Z,5.13
2018-04-29T20:45:15.207Z,4.47
2018-04-29T20:47:48.180Z,4.70
2018-04-29T20:50:16.468Z,4.63
2018-04-29T20:52:47.958Z,5.10
2018-04-29T20:55:16.272Z,4.97
2018-04-29T20:57:52.013Z,4.87
2018-04-29T21:00:20.273Z,5.00
2018-04-29T21:02:48.498Z,5.00
2018-04-29T21:05:16.783Z,4.60
2018-04-29T21:07:53.572Z,5.03
2018-04-29T21:10:22.666Z,4.53
2018-04-29T21:12:51.708Z,4.97
2018-04-29T21:15:19.944Z,4.60
2018-04-29T21:17:48.965Z,4.50
2018-04-29T21:20:17.224Z,4.97
2018-04-29T21:22:45.552Z,4.67
2018-04-29T21:25:13.817Z,5.30
2018-04-29T21:27:46.200Z,4.93
2018-04-29T21:30:14.485Z,4.63
2018-04-29T21:32:42.826Z,4.90
2018-04-29T21:35:11.103Z,5.00
2018-04-29T21:37:47.073Z,4.60
2018-04-29T21:40:15.378Z,5.00
2018-04-29T21:42:44.443Z,5.37
2018-04-29T21:45:13.083Z,5.10
2018-04-29T21:47:41.435Z,5.67
2018-04-29T21:50:09.721Z,5.47
2018-04-29T21:52:38.807Z,4.77
2018-04-29T21:55:07.159Z,5.27
2018-04-29T21:57:35.427Z,5.20
